createdAt,value
2023-07-18T00:02:36.418Z,1.55
2023-07-18T00:05:41.017Z,1.73
2023-07-18T00:08:45.847Z,1.58
2023-07-18T00:11:49.077Z,1.73
2023-07-18T00:14:53.824Z,1.80
2023-07-18T00:17:57.609Z,1.60
2023-07-18T00:21:00.656Z,1.38
2023-07-18T00:24:03.744Z,1.77
2023-07-18T00:27:07.544Z,2.00
2023-07-18T00:30:14.904Z,1.70
2023-07-18T00:33:18.010Z,1.70
2023-07-18T00:36:21.322Z,1.70
2023-07-18T00:39:24.747Z,2.00
2023-07-18T00:42:27.773Z,1.43
2023-07-18T00:45:32.336Z,1.60
2023-07-18T00:48:36.881Z,2.03
2023-07-18T00:51:40.239Z,2.05
2023-07-18T00:54:45.074Z,1.53
2023-07-18T00:57:49.250Z,1.48
2023-07-18T01:03:58.846Z,1.67
2023-07-18T01:07:02.401Z,1.80
2023-07-18T01:10:16.552Z,2.30
2023-07-18T01:13:19.635Z,1.98
2023-07-18T01:16:24.280Z,1.83
2023-07-18T01:19:27.720Z,1.52
2023-07-18T01:22:32.196Z,1.97
2023-07-18T01:25:36.021Z,2.05
2023-07-18T01:28:39.581Z,1.63
2023-07-18T01:31:42.852Z,1.58
2023-07-18T01:34:46.572Z,1.90
2023-07-18T01:37:51.746Z,2.30
2023-07-18T01:40:54.826Z,1.35
2023-07-18T01:43:58.070Z,1.45
2023-07-18T01:47:01.219Z,1.90
2023-07-18T01:50:05.692Z,1.83
2023-07-18T01:53:11.894Z,2.22
2023-07-18T01:56:37.628Z,2.03
2023-07-18T01:59:41.108Z,2.25
2023-07-18T02:02:46.790Z,2.23
2023-07-18T02:05:49.948Z,1.40
2023-07-18T02:08:53.324Z,1.92
2023-07-18T02:11:57.783Z,2.20
2023-07-18T02:15:00.789Z,1.88
2023-07-18T02:18:04.120Z,1.60
2023-07-18T02:21:07.479Z,1.57
2023-07-18T02:24:11.077Z,2.10
2023-07-18T02:27:15.853Z,1.55
2023-07-18T02:30:18.903Z,1.88
2023-07-18T02:33:22.146Z,2.00
2023-07-18T02:36:25.232Z,1.53
2023-07-18T02:39:28.241Z,1.92
2023-07-18T02:42:34.938Z,2.15
2023-07-18T02:45:38.444Z,2.00
2023-07-18T02:48:42.106Z,1.88
2023-07-18T02:51:45.236Z,1.83
2023-07-18T02:54:48.675Z,1.75
2023-07-18T02:57:54.247Z,2.20
2023-07-18T03:00:57.322Z,2.13
2023-07-18T03:04:00.520Z,1.55
2023-07-18T03:07:04.603Z,1.87
2023-07-18T03:10:08.845Z,1.60
2023-07-18T03:13:13.823Z,2.20
2023-07-18T03:16:16.920Z,1.77
2023-07-18T03:19:20.037Z,1.50
2023-07-18T03:22:23.064Z,1.63
2023-07-18T03:25:26.561Z,1.63
2023-07-18T03:28:31.400Z,1.70
2023-07-18T03:33:50.557Z,1.92
2023-07-18T03:36:53.625Z,1.55
2023-07-18T03:39:56.737Z,2.20
2023-07-18T03:42:59.970Z,2.38
2023-07-18T03:46:03.002Z,1.40
2023-07-18T03:49:08.613Z,1.77
2023-07-18T03:52:11.872Z,1.42
2023-07-18T03:55:14.912Z,1.45
2023-07-18T03:58:17.998Z,1.50
2023-07-18T04:01:21.153Z,1.88
2023-07-18T04:04:26.077Z,2.27
2023-07-18T04:07:29.093Z,1.52
2023-07-18T04:10:32.337Z,1.25
2023-07-18T04:13:35.407Z,1.25
2023-07-18T04:16:38.956Z,2.20
2023-07-18T04:19:43.426Z,1.88
2023-07-18T04:22:46.757Z,1.90
2023-07-18T04:25:58.072Z,1.53
2023-07-18T04:29:01.381Z,1.52
2023-07-18T04:32:04.897Z,1.90
2023-07-18T04:35:10.234Z,1.83
2023-07-18T04:38:13.643Z,1.67
2023-07-18T04:41:17.379Z,1.30
2023-07-18T04:47:24.207Z,1.27
2023-07-18T04:50:30.414Z,1.60
2023-07-18T04:53:34.617Z,1.95
2023-07-18T04:56:37.762Z,0.90
2023-07-18T04:59:42.394Z,1.40
2023-07-18T05:02:45.942Z,1.52
2023-07-18T05:05:50.954Z,1.33
2023-07-18T05:08:54.844Z,1.60
2023-07-18T05:11:58.128Z,1.15
2023-07-18T05:15:01.610Z,1.20
2023-07-18T05:18:04.956Z,1.40
2023-07-18T05:21:10.123Z,1.25
2023-07-18T05:24:13.154Z,1.17
2023-07-18T05:27:16.225Z,1.33
2023-07-18T05:30:20.590Z,1.50
2023-07-18T05:33:23.738Z,1.00
2023-07-18T05:37:36.116Z,0.90
2023-07-18T05:40:39.283Z,0.90
2023-07-18T05:43:42.339Z,1.33
2023-07-18T05:46:45.418Z,1.27
2023-07-18T05:49:48.675Z,0.83
2023-07-18T05:52:53.219Z,1.00
2023-07-18T05:55:56.370Z,0.73
2023-07-18T05:58:59.520Z,0.80
2023-07-18T06:02:04.138Z,0.93
2023-07-18T06:05:08.584Z,0.80
2023-07-18T06:08:12.995Z,1.10
2023-07-18T06:11:16.019Z,1.02
2023-07-18T06:14:19.091Z,0.87
2023-07-18T06:17:22.461Z,1.10
2023-07-18T06:20:25.821Z,1.02
2023-07-18T06:23:31.389Z,0.60
2023-07-18T06:26:34.431Z,0.82
2023-07-18T06:29:37.644Z,0.80
2023-07-18T06:32:44.350Z,0.90
2023-07-18T06:35:53.638Z,1.50
2023-07-18T06:38:58.013Z,0.70
2023-07-18T06:42:01.308Z,0.98
2023-07-18T06:45:05.210Z,1.10
2023-07-18T06:48:08.607Z,0.80
2023-07-18T06:51:11.733Z,0.88
2023-07-18T06:54:16.107Z,0.83
2023-07-18T06:57:20.336Z,1.00
2023-07-18T07:00:24.566Z,1.10
2023-07-18T07:03:30.030Z,0.77
2023-07-18T07:06:34.098Z,0.88
2023-07-18T07:09:38.571Z,0.67
2023-07-18T07:12:45.357Z,1.20
2023-07-18T07:15:48.388Z,0.90
2023-07-18T07:18:51.910Z,0.73
2023-07-18T07:21:55.128Z,1.05
2023-07-18T07:24:59.668Z,0.85
2023-07-18T07:28:03.058Z,1.00
2023-07-18T07:31:06.639Z,0.50
2023-07-18T07:34:09.861Z,0.60
2023-07-18T07:37:12.911Z,1.00
2023-07-18T07:40:17.413Z,0.98
2023-07-18T07:43:20.812Z,0.60
2023-07-18T07:46:23.873Z,0.73
2023-07-18T07:49:26.972Z,1.10
2023-07-18T07:52:30.281Z,0.83
2023-07-18T07:55:34.713Z,0.50
2023-07-18T07:58:38.882Z,0.90
2023-07-18T08:01:42.087Z,0.60
2023-07-18T08:04:45.391Z,0.57
2023-07-18T08:07:48.687Z,0.85
2023-07-18T08:10:53.394Z,0.60
2023-07-18T08:13:57.300Z,0.90
2023-07-18T08:20:06.375Z,0.60
2023-07-18T08:23:10.898Z,0.70
2023-07-18T08:26:15.844Z,0.63
2023-07-18T08:29:19.195Z,0.80
2023-07-18T08:32:22.678Z,0.65
2023-07-18T08:35:26.293Z,1.10
2023-07-18T08:38:29.386Z,0.65
2023-07-18T08:41:34.221Z,0.50
2023-07-18T08:44:37.757Z,0.40
2023-07-18T08:47:42.293Z,0.68
2023-07-18T08:50:47.170Z,0.50
2023-07-18T08:53:50.358Z,0.77
2023-07-18T08:56:57.817Z,0.80
2023-07-18T09:00:01.839Z,0.52
2023-07-18T09:06:19.296Z,0.73
2023-07-18T09:09:22.359Z,0.47
2023-07-18T09:12:28.991Z,0.73
2023-07-18T09:15:35.106Z,0.63
2023-07-18T09:18:39.890Z,0.50
2023-07-18T09:21:42.985Z,0.50
2023-07-18T09:24:48.783Z,0.57
2023-07-18T09:27:54.846Z,0.45
2023-07-18T09:30:58.420Z,0.63
2023-07-18T09:34:01.580Z,0.73
2023-07-18T09:37:07.138Z,0.53
2023-07-18T09:40:12.820Z,0.60
2023-07-18T09:43:18.660Z,0.63
2023-07-18T09:46:22.773Z,0.60
2023-07-18T09:52:40.818Z,0.30
2023-07-18T09:56:02.899Z,0.50
2023-07-18T09:59:09.634Z,0.60
2023-07-18T10:02:12.994Z,0.40
2023-07-18T10:05:17.611Z,0.65
2023-07-18T10:08:20.816Z,0.60
2023-07-18T10:11:25.478Z,0.50
2023-07-18T10:14:29.655Z,0.70
2023-07-18T10:17:38.314Z,0.70
2023-07-18T10:20:41.557Z,0.50
2023-07-18T10:23:44.881Z,0.70
2023-07-18T10:26:53.335Z,0.38
2023-07-18T10:30:20.927Z,0.60
2023-07-18T10:33:24.051Z,0.50
2023-07-18T10:36:27.151Z,0.43
2023-07-18T10:39:39.998Z,0.83
2023-07-18T10:42:45.026Z,0.60
2023-07-18T10:45:49.470Z,3.80
2023-07-18T10:48:52.490Z,2.90
2023-07-18T10:51:56.647Z,0.90
2023-07-18T10:55:01.241Z,0.60
2023-07-18T10:58:06.308Z,0.57
2023-07-18T11:01:11.156Z,0.50
2023-07-18T11:04:14.428Z,0.50
2023-07-18T11:07:17.826Z,0.52
2023-07-18T11:10:21.080Z,0.73
2023-07-18T11:13:31.674Z,1.00
2023-07-18T11:16:37.920Z,0.70
2023-07-18T11:19:41.687Z,0.50
2023-07-18T11:22:44.843Z,0.43
2023-07-18T11:25:48.095Z,0.88
2023-07-18T11:28:52.880Z,0.60
2023-07-18T11:32:02.655Z,0.82
2023-07-18T11:35:07.607Z,0.60
2023-07-18T11:38:10.895Z,0.57
2023-07-18T11:41:17.344Z,0.73
2023-07-18T11:44:26.409Z,0.60
2023-07-18T11:47:30.945Z,0.75
2023-07-18T11:50:34.304Z,0.55
2023-07-18T11:53:37.583Z,0.80
2023-07-18T11:56:40.836Z,1.03
2023-07-18T11:59:43.981Z,1.08
2023-07-18T12:02:50.008Z,0.57
2023-07-18T12:05:53.454Z,1.02
2023-07-18T12:09:25.801Z,0.70
2023-07-18T12:12:30.243Z,0.80
2023-07-18T12:15:35.234Z,0.38
2023-07-18T12:18:40.178Z,0.60
2023-07-18T12:21:43.597Z,1.10
2023-07-18T12:24:48.546Z,0.88
2023-07-18T12:27:51.643Z,0.73
2023-07-18T12:30:54.965Z,0.60
2023-07-18T12:33:57.931Z,0.73
2023-07-18T12:37:01.576Z,0.70
2023-07-18T12:40:08.423Z,0.82
2023-07-18T12:43:11.496Z,0.60
2023-07-18T12:46:14.647Z,0.70
2023-07-18T12:49:56.346Z,0.77
2023-07-18T12:52:44.599Z,0.75
2023-07-18T12:55:49.799Z,1.30
2023-07-18T12:58:53.145Z,0.70
2023-07-18T13:01:56.674Z,0.77
2023-07-18T13:04:59.862Z,0.85
2023-07-18T13:08:03.062Z,0.77
2023-07-18T13:11:07.625Z,0.88
2023-07-18T13:14:10.877Z,0.80
2023-07-18T13:17:13.990Z,0.77
2023-07-18T13:20:19.628Z,1.03
2023-07-18T13:23:22.937Z,1.08
2023-07-18T13:26:27.752Z,1.00
2023-07-18T13:29:30.877Z,0.82
2023-07-18T13:32:34.180Z,0.80
2023-07-18T13:35:37.611Z,0.77
2023-07-18T13:38:40.687Z,0.80
2023-07-18T13:41:45.131Z,0.63
2023-07-18T13:44:48.232Z,0.80
2023-07-18T13:47:51.688Z,0.50
2023-07-18T13:50:54.784Z,0.82
2023-07-18T13:53:58.055Z,0.73
2023-07-18T13:57:02.428Z,0.82
2023-07-18T14:00:06.464Z,0.57
2023-07-18T14:03:23.385Z,0.90
2023-07-18T14:06:32.905Z,0.77
2023-07-18T14:09:36.318Z,1.05
2023-07-18T14:12:43.829Z,0.98
2023-07-18T14:15:47.315Z,0.93
2023-07-18T14:18:50.596Z,0.80
2023-07-18T14:21:53.831Z,0.75
2023-07-18T14:24:57.004Z,0.73
2023-07-18T14:28:01.481Z,1.13
2023-07-18T14:31:04.592Z,0.80
2023-07-18T14:34:07.868Z,0.70
2023-07-18T14:37:11.112Z,0.90
2023-07-18T14:40:14.294Z,0.90
2023-07-18T14:43:30.125Z,1.10
2023-07-18T14:46:35.029Z,1.15
2023-07-18T14:49:38.526Z,1.73
2023-07-18T14:52:43.485Z,1.38
2023-07-18T14:55:46.855Z,1.48
2023-07-18T14:58:51.804Z,0.85
2023-07-18T15:01:54.965Z,0.60
2023-07-18T15:04:59.143Z,0.77
2023-07-18T15:08:02.496Z,0.65
2023-07-18T15:11:05.642Z,0.70
2023-07-18T15:14:10.247Z,0.60
2023-07-18T15:17:13.409Z,0.73
2023-07-18T15:20:17.070Z,0.60
2023-07-18T15:23:20.626Z,0.65
2023-07-18T15:26:23.889Z,0.60
2023-07-18T15:29:28.477Z,0.80
2023-07-18T15:32:31.745Z,0.80
2023-07-18T15:35:35.242Z,0.90
2023-07-18T15:38:38.564Z,0.60
2023-07-18T15:41:41.842Z,0.40
2023-07-18T15:44:46.741Z,0.53
2023-07-18T15:47:49.907Z,0.47
2023-07-18T15:50:52.978Z,0.50
2023-07-18T15:53:56.174Z,0.53
2023-07-18T15:57:30.605Z,0.60
2023-07-18T16:00:33.831Z,0.50
2023-07-18T16:03:36.906Z,0.80
2023-07-18T16:06:40.429Z,0.50
2023-07-18T16:09:51.596Z,0.85
2023-07-18T16:12:56.169Z,0.90
2023-07-18T16:15:59.404Z,0.60
2023-07-18T16:19:04.745Z,0.77
2023-07-18T16:22:08.309Z,0.70
2023-07-18T16:25:11.309Z,0.45
2023-07-18T16:28:15.852Z,0.57
2023-07-18T16:31:21.169Z,0.88
2023-07-18T16:34:24.471Z,0.60
2023-07-18T16:37:27.463Z,0.80
2023-07-18T16:40:30.571Z,0.85
2023-07-18T16:43:35.330Z,0.70
2023-07-18T16:46:56.314Z,0.50
2023-07-18T16:49:59.652Z,0.70
2023-07-18T16:53:02.898Z,0.65
2023-07-18T16:56:06.594Z,0.70
2023-07-18T16:59:09.877Z,0.75
2023-07-18T17:02:14.232Z,0.43
2023-07-18T17:05:17.361Z,0.47
2023-07-18T17:08:20.348Z,0.70
2023-07-18T17:11:23.781Z,0.80
2023-07-18T17:14:27.217Z,0.77
2023-07-18T17:17:32.344Z,0.93
2023-07-18T17:20:35.924Z,0.55
2023-07-18T17:23:39.232Z,0.80
2023-07-18T17:26:42.526Z,0.70
2023-07-18T17:29:45.632Z,0.77
2023-07-18T17:32:50.349Z,0.80
2023-07-18T17:35:53.480Z,0.85
2023-07-18T17:38:56.592Z,1.10
2023-07-18T17:42:01.081Z,0.83
2023-07-18T17:45:04.584Z,1.00
2023-07-18T17:48:09.858Z,0.85
2023-07-18T17:51:13.140Z,0.80
2023-07-18T17:54:16.409Z,0.97
2023-07-18T17:57:19.490Z,0.85
2023-07-18T18:00:22.891Z,0.73
2023-07-18T18:03:27.672Z,0.77
2023-07-18T18:06:31.103Z,1.08
2023-07-18T18:09:34.234Z,0.90
2023-07-18T18:12:37.395Z,0.87
2023-07-18T18:15:48.785Z,0.75
2023-07-18T18:19:01.338Z,0.68
2023-07-18T18:22:04.700Z,0.85
2023-07-18T18:25:08.245Z,1.07
2023-07-18T18:28:11.294Z,0.80
2023-07-18T18:31:14.370Z,1.02
2023-07-18T18:34:19.074Z,0.87
2023-07-18T18:37:22.582Z,0.60
2023-07-18T18:40:25.853Z,0.60
2023-07-18T18:43:29.113Z,1.00
2023-07-18T18:46:32.362Z,0.50
2023-07-18T18:49:36.860Z,0.70
2023-07-18T18:52:44.835Z,0.88
2023-07-18T18:55:48.088Z,1.50
2023-07-18T18:58:51.253Z,0.60
2023-07-18T19:01:54.589Z,0.60
2023-07-18T19:04:59.104Z,0.93
2023-07-18T19:08:02.371Z,0.60
2023-07-18T19:11:08.124Z,1.00
2023-07-18T19:14:11.666Z,0.75
2023-07-18T19:17:14.972Z,0.73
2023-07-18T19:20:19.842Z,0.90
2023-07-18T19:23:22.864Z,1.00
2023-07-18T19:26:26.151Z,0.45
2023-07-18T19:29:29.418Z,0.60
2023-07-18T19:32:33.303Z,0.70
2023-07-18T19:35:38.147Z,0.60
2023-07-18T19:38:41.474Z,0.50
2023-07-18T19:41:44.791Z,0.73
2023-07-18T19:44:48.589Z,0.70
2023-07-18T19:47:52.025Z,0.90
2023-07-18T19:50:56.817Z,0.80
2023-07-18T19:53:59.983Z,0.60
2023-07-18T19:57:03.258Z,0.80
2023-07-18T20:00:07.937Z,0.70
2023-07-18T20:03:11.545Z,0.75
2023-07-18T20:06:16.544Z,0.60
2023-07-18T20:09:19.889Z,0.40
2023-07-18T20:12:23.242Z,0.43
2023-07-18T20:15:26.842Z,0.90
2023-07-18T20:18:31.813Z,0.70
2023-07-18T20:21:37.689Z,0.52
2023-07-18T20:24:41.058Z,0.77
2023-07-18T20:27:45.071Z,0.60
2023-07-18T20:30:49.494Z,0.77
2023-07-18T20:33:52.822Z,1.00
2023-07-18T20:36:57.834Z,0.53
2023-07-18T20:40:04.981Z,0.65
2023-07-18T20:43:07.986Z,0.57
2023-07-18T20:46:12.797Z,0.50
2023-07-18T20:49:33.586Z,0.60
2023-07-18T20:52:36.940Z,0.50
2023-07-18T20:55:40.568Z,0.60
2023-07-18T20:58:43.742Z,0.52
2023-07-18T21:01:46.905Z,0.50
2023-07-18T21:04:51.546Z,0.60
2023-07-18T21:07:54.633Z,0.73
2023-07-18T21:10:58.086Z,0.60
2023-07-18T21:14:01.397Z,0.93
2023-07-18T21:17:05.063Z,0.73
2023-07-18T21:20:11.308Z,0.68
2023-07-18T21:23:14.460Z,0.50
2023-07-18T21:26:18.200Z,0.80
2023-07-18T21:29:22.602Z,0.70
2023-07-18T21:32:25.766Z,0.52
2023-07-18T21:35:30.263Z,0.60
2023-07-18T21:38:33.830Z,0.77
2023-07-18T21:41:37.422Z,0.57
2023-07-18T21:44:40.650Z,0.73
2023-07-18T21:47:45.379Z,0.80
2023-07-18T21:51:12.543Z,0.73
2023-07-18T21:54:15.753Z,0.88
2023-07-18T21:57:18.847Z,0.50
2023-07-18T22:00:22.376Z,0.77
2023-07-18T22:03:27.626Z,0.65
2023-07-18T22:06:32.086Z,0.88
2023-07-18T22:09:35.228Z,0.80
2023-07-18T22:12:38.724Z,0.68
2023-07-18T22:15:43.108Z,0.97
2023-07-18T22:18:46.602Z,0.82
2023-07-18T22:21:51.045Z,0.50
2023-07-18T22:24:54.753Z,0.45
2023-07-18T22:27:58.081Z,0.45
2023-07-18T22:31:01.579Z,0.70
2023-07-18T22:34:04.881Z,0.70
2023-07-18T22:37:09.634Z,0.40
2023-07-18T22:40:13.275Z,0.93
2023-07-18T22:43:16.348Z,0.85
2023-07-18T22:46:19.531Z,0.80
2023-07-18T22:49:26.107Z,0.82
2023-07-18T22:52:30.839Z,0.75
2023-07-18T22:55:34.099Z,0.65
2023-07-18T22:58:37.160Z,0.70
2023-07-18T23:01:40.403Z,0.75
2023-07-18T23:04:43.609Z,0.60
2023-07-18T23:07:48.588Z,0.98
2023-07-18T23:10:51.577Z,0.85
2023-07-18T23:13:54.688Z,0.47
2023-07-18T23:16:58.309Z,1.40
2023-07-18T23:20:01.882Z,0.73
2023-07-18T23:23:06.810Z,0.70
2023-07-18T23:26:34.123Z,0.75
2023-07-18T23:29:37.219Z,0.77
2023-07-18T23:32:41.894Z,0.55
2023-07-18T23:35:45.591Z,0.75
2023-07-18T23:38:48.744Z,0.55
2023-07-18T23:41:53.336Z,0.63
2023-07-18T23:44:56.864Z,0.60
2023-07-18T23:48:02.608Z,0.40
2023-07-18T23:51:05.705Z,0.40
2023-07-18T23:54:08.807Z,0.52
2023-07-18T23:57:13.422Z,0.70
